createdAt,value
2023-03-04T00:00:01.620Z,19.17
2023-03-04T00:02:28.603Z,23.05
2023-03-04T00:04:55.552Z,17.42
2023-03-04T00:07:22.498Z,20.95
2023-03-04T00:09:49.440Z,19.17
2023-03-04T00:12:16.386Z,19.10
2023-03-04T00:14:43.440Z,20.73
2023-03-04T00:17:10.428Z,16.20
2023-03-04T00:19:37.399Z,13.35
2023-03-04T00:22:05.113Z,17.10
2023-03-04T00:24:32.569Z,17.90
2023-03-04T00:26:59.719Z,13.80
2023-03-04T00:29:27.011Z,15.48
2023-03-04T00:31:54.145Z,16.88
2023-03-04T00:34:21.663Z,17.10
2023-03-04T00:36:48.733Z,13.65
2023-03-04T00:39:15.985Z,11.32
2023-03-04T00:41:43.318Z,16.30
2023-03-04T00:44:10.430Z,17.00
2023-03-04T00:46:37.375Z,14.38
2023-03-04T00:49:04.668Z,14.60
2023-03-04T00:51:31.669Z,18.75
2023-03-04T00:54:00.831Z,15.48
2023-03-04T00:56:28.129Z,18.48
2023-03-04T00:58:55.214Z,20.67
2023-03-04T01:01:22.257Z,15.02
2023-03-04T01:03:49.178Z,19.38
2023-03-04T01:06:16.226Z,17.15
2023-03-04T01:08:43.254Z,16.85
2023-03-04T01:11:10.284Z,18.90
2023-03-04T01:13:37.505Z,19.23
2023-03-04T01:16:05.212Z,16.58
2023-03-04T01:18:32.473Z,13.98
2023-03-04T01:20:59.880Z,16.65
2023-03-04T01:23:26.924Z,14.93
2023-03-04T01:25:54.181Z,15.93
2023-03-04T01:28:21.242Z,14.20
2023-03-04T01:30:48.152Z,17.67
2023-03-04T01:33:15.628Z,12.00
2023-03-04T01:35:42.638Z,15.70
2023-03-04T01:38:09.600Z,11.57
2023-03-04T01:40:38.224Z,14.50
2023-03-04T01:43:05.505Z,15.95
2023-03-04T01:45:33.441Z,16.40
2023-03-04T01:48:00.534Z,13.57
2023-03-04T01:50:32.238Z,18.85
2023-03-04T01:52:59.443Z,12.82
2023-03-04T01:55:31.687Z,15.57
2023-03-04T01:57:58.718Z,12.27
2023-03-04T02:00:27.399Z,16.42
2023-03-04T02:03:19.798Z,12.35
2023-03-04T02:05:49.955Z,11.63
2023-03-04T02:08:20.368Z,10.57
2023-03-04T02:10:48.214Z,11.75
2023-03-04T02:13:16.453Z,14.95
2023-03-04T02:15:45.536Z,11.63
2023-03-04T02:18:21.881Z,11.05
2023-03-04T02:20:58.413Z,17.45
2023-03-04T02:23:41.381Z,15.00
2023-03-04T02:26:21.476Z,12.75
2023-03-04T02:28:50.212Z,8.18
2023-03-04T02:31:39.094Z,15.57
2023-03-04T02:34:12.157Z,15.27
2023-03-04T02:36:40.171Z,16.27
2023-03-04T02:39:54.414Z,16.30
2023-03-04T02:42:21.349Z,10.23
2023-03-04T02:44:50.466Z,17.00
2023-03-04T02:47:18.963Z,12.30
2023-03-04T02:49:46.647Z,11.82
2023-03-04T02:52:18.311Z,10.30
2023-03-04T02:54:45.414Z,12.55
2023-03-04T02:57:13.898Z,11.80
2023-03-04T02:59:42.283Z,12.45
2023-03-04T03:02:10.033Z,10.75
2023-03-04T03:04:39.320Z,11.23
2023-03-04T03:07:06.553Z,15.80
2023-03-04T03:09:33.447Z,9.45
2023-03-04T03:12:00.453Z,14.13
2023-03-04T03:14:27.378Z,11.82
2023-03-04T03:16:54.301Z,14.75
2023-03-04T03:19:21.238Z,13.50
2023-03-04T03:21:48.152Z,9.68
2023-03-04T03:24:15.541Z,10.30
2023-03-04T03:26:42.456Z,10.68
2023-03-04T03:29:09.306Z,11.30
2023-03-04T03:31:36.307Z,14.60
2023-03-04T03:34:03.224Z,9.23
2023-03-04T03:36:30.193Z,11.10
2023-03-04T03:38:57.156Z,10.23
2023-03-04T03:41:24.085Z,11.85
2023-03-04T03:43:50.977Z,12.82
2023-03-04T03:46:18.022Z,10.30
2023-03-04T03:48:44.862Z,13.50
2023-03-04T03:51:11.724Z,12.23
2023-03-04T03:53:38.617Z,12.55
2023-03-04T03:56:05.914Z,12.57
2023-03-04T03:58:33.021Z,12.07
2023-03-04T04:01:00.055Z,13.27
2023-03-04T04:03:27.013Z,12.35
2023-03-04T04:05:53.888Z,7.90
2023-03-04T04:08:20.903Z,10.57
2023-03-04T04:10:47.905Z,11.40
2023-03-04T04:13:14.891Z,11.57
2023-03-04T04:15:41.890Z,6.97
2023-03-04T04:18:09.091Z,10.65
2023-03-04T04:20:36.449Z,12.43
2023-03-04T04:23:03.902Z,9.32
2023-03-04T04:25:30.967Z,8.90
2023-03-04T04:27:57.868Z,15.05
2023-03-04T04:30:25.279Z,6.57
2023-03-04T04:32:52.259Z,11.65
2023-03-04T04:35:19.367Z,11.20
2023-03-04T04:37:46.309Z,9.13
2023-03-04T04:40:13.513Z,8.60
2023-03-04T04:42:40.498Z,11.43
2023-03-04T04:45:08.181Z,8.98
2023-03-04T04:47:35.192Z,10.35
2023-03-04T04:50:02.676Z,13.00
2023-03-04T04:52:29.637Z,8.95
2023-03-04T04:54:56.547Z,11.18
2023-03-04T04:57:23.601Z,25.27
2023-03-04T04:59:50.514Z,13.60
2023-03-04T05:02:17.515Z,9.30
2023-03-04T05:04:44.484Z,13.85
2023-03-04T05:07:11.508Z,9.00
2023-03-04T05:09:38.520Z,14.10
2023-03-04T05:12:05.559Z,8.43
2023-03-04T05:14:32.447Z,10.02
2023-03-04T05:16:59.579Z,9.13
2023-03-04T05:19:26.536Z,9.88
2023-03-04T05:21:53.429Z,10.75
2023-03-04T05:24:20.498Z,9.10
2023-03-04T05:26:47.794Z,9.98
2023-03-04T05:29:14.731Z,13.30
2023-03-04T05:31:41.653Z,14.55
2023-03-04T05:34:08.552Z,9.05
2023-03-04T05:36:35.497Z,9.60
2023-03-04T05:39:02.436Z,13.55
2023-03-04T05:41:29.313Z,16.92
2023-03-04T05:43:56.857Z,9.68
2023-03-04T05:46:25.769Z,8.02
2023-03-04T05:48:53.948Z,9.63
2023-03-04T05:51:22.091Z,14.27
2023-03-04T05:53:49.718Z,6.93
2023-03-04T05:56:19.554Z,8.15
2023-03-04T05:58:49.341Z,11.60
2023-03-04T06:01:17.316Z,13.30
2023-03-04T06:03:44.733Z,8.20
2023-03-04T06:06:11.697Z,8.65
2023-03-04T06:08:38.683Z,5.32
2023-03-04T06:11:06.131Z,7.60
2023-03-04T06:13:34.173Z,10.55
2023-03-04T06:16:01.790Z,7.78
2023-03-04T06:18:29.828Z,8.05
2023-03-04T06:21:01.758Z,6.60
2023-03-04T06:23:29.588Z,7.63
2023-03-04T06:25:58.506Z,6.00
2023-03-04T06:28:25.851Z,8.77
2023-03-04T06:30:53.445Z,11.88
2023-03-04T06:33:20.576Z,11.57
2023-03-04T06:35:47.866Z,8.18
2023-03-04T06:38:15.036Z,6.45
2023-03-04T06:40:41.958Z,12.93
2023-03-04T06:43:08.863Z,6.35
2023-03-04T06:45:35.782Z,6.13
2023-03-04T06:48:02.826Z,7.35
2023-03-04T06:50:29.714Z,7.30
2023-03-04T06:52:57.658Z,9.55
2023-03-04T06:55:24.995Z,8.52
2023-03-04T06:57:51.950Z,7.28
2023-03-04T07:00:19.642Z,6.50
2023-03-04T07:02:46.561Z,5.68
2023-03-04T07:05:13.547Z,6.85
2023-03-04T07:07:40.574Z,7.40
2023-03-04T07:10:08.066Z,5.60
2023-03-04T07:12:34.981Z,4.40
2023-03-04T07:15:02.063Z,9.13
2023-03-04T07:17:29.296Z,4.18
2023-03-04T07:19:56.192Z,7.13
2023-03-04T07:22:23.103Z,6.05
2023-03-04T07:24:50.133Z,7.38
2023-03-04T07:27:17.025Z,6.05
2023-03-04T07:29:43.961Z,7.45
2023-03-04T07:32:11.579Z,4.88
2023-03-04T07:34:38.661Z,9.30
2023-03-04T07:37:05.607Z,3.95
2023-03-04T07:39:32.520Z,7.68
2023-03-04T07:41:59.475Z,5.25
2023-03-04T07:44:26.412Z,6.88
2023-03-04T07:46:53.325Z,5.28
2023-03-04T07:49:20.202Z,4.78
2023-03-04T07:51:47.301Z,4.35
2023-03-04T07:54:14.306Z,4.95
2023-03-04T07:56:41.337Z,2.00
2023-03-04T07:59:08.298Z,1.75
2023-03-04T08:01:37.267Z,2.08
2023-03-04T08:04:06.465Z,2.50
2023-03-04T08:06:34.310Z,2.88
2023-03-04T08:09:06.551Z,2.30
2023-03-04T08:11:34.962Z,1.92
2023-03-04T08:14:02.095Z,2.72
2023-03-04T08:16:29.509Z,6.03
2023-03-04T08:18:59.384Z,2.90
2023-03-04T08:21:28.104Z,1.90
2023-03-04T08:23:57.392Z,3.17
2023-03-04T08:26:29.320Z,2.95
2023-03-04T08:28:57.696Z,2.40
2023-03-04T08:31:25.172Z,2.42
2023-03-04T08:33:53.113Z,4.47
2023-03-04T08:36:20.767Z,3.13
2023-03-04T08:38:47.714Z,2.53
2023-03-04T08:41:15.612Z,2.40
2023-03-04T08:43:42.863Z,2.63
2023-03-04T08:46:09.840Z,1.33
2023-03-04T08:48:38.364Z,6.53
2023-03-04T08:51:14.068Z,3.67
2023-03-04T08:53:41.672Z,2.95
2023-03-04T08:56:09.661Z,4.65
2023-03-04T08:58:36.801Z,1.65
2023-03-04T09:01:05.263Z,3.72
2023-03-04T09:03:32.340Z,2.53
2023-03-04T09:06:01.556Z,3.13
2023-03-04T09:08:28.573Z,1.90
2023-03-04T09:10:56.144Z,2.20
2023-03-04T09:13:26.126Z,3.30
2023-03-04T09:15:54.069Z,4.60
2023-03-04T09:18:23.637Z,5.45
2023-03-04T09:20:51.008Z,3.05
2023-03-04T09:23:18.465Z,2.13
2023-03-04T09:25:47.489Z,3.10
2023-03-04T09:28:15.397Z,2.30
2023-03-04T09:30:42.964Z,1.38
2023-03-04T09:33:10.784Z,1.88
2023-03-04T09:35:37.964Z,1.13
2023-03-04T09:38:05.168Z,2.42
2023-03-04T09:40:46.744Z,2.08
2023-03-04T09:43:30.161Z,2.20
2023-03-04T09:46:01.546Z,1.77
2023-03-04T09:48:33.127Z,2.45
2023-03-04T09:51:06.127Z,2.75
2023-03-04T09:53:49.600Z,2.10
2023-03-04T09:56:16.680Z,2.85
2023-03-04T09:59:11.674Z,3.63
2023-03-04T10:01:52.970Z,2.40
2023-03-04T10:04:25.975Z,3.38
2023-03-04T10:06:54.724Z,2.85
2023-03-04T10:09:33.605Z,2.70
2023-03-04T10:12:18.271Z,2.17
2023-03-04T10:15:00.606Z,4.30
2023-03-04T10:17:38.432Z,2.65
2023-03-04T10:20:38.304Z,1.88
2023-03-04T10:23:16.277Z,2.08
2023-03-04T10:25:46.819Z,2.17
2023-03-04T10:28:17.804Z,3.35
2023-03-04T10:31:23.041Z,1.75
2023-03-04T10:33:50.281Z,1.45
2023-03-04T10:36:29.450Z,1.63
2023-03-04T10:39:05.483Z,3.42
2023-03-04T10:41:33.104Z,4.72
2023-03-04T10:44:14.535Z,2.13
2023-03-04T10:46:46.718Z,2.60
2023-03-04T10:49:16.059Z,1.05
2023-03-04T10:51:45.778Z,1.60
2023-03-04T10:54:50.130Z,8.40
2023-03-04T10:57:21.224Z,2.78
2023-03-04T10:59:57.896Z,5.82
2023-03-04T11:02:42.728Z,3.65
2023-03-04T11:05:17.128Z,4.30
2023-03-04T11:08:00.530Z,1.38
2023-03-04T11:10:53.755Z,4.72
2023-03-04T11:13:23.445Z,2.47
2023-03-04T11:16:03.757Z,2.58
2023-03-04T11:18:42.684Z,1.95
2023-03-04T11:21:17.248Z,4.25
2023-03-04T11:27:34.432Z,2.90
2023-03-04T11:30:25.298Z,2.70
2023-03-04T11:32:56.781Z,3.15
2023-03-04T11:35:37.353Z,5.45
2023-03-04T11:38:17.052Z,1.45
2023-03-04T11:40:55.244Z,4.70
2023-03-04T11:43:39.636Z,2.17
2023-03-04T11:46:25.928Z,0.68
2023-03-04T11:49:11.604Z,1.10
2023-03-04T11:52:03.297Z,3.22
2023-03-04T11:54:40.999Z,5.60
2023-03-04T11:57:18.844Z,3.08
2023-03-04T11:59:55.300Z,2.60
2023-03-04T12:02:25.769Z,4.03
2023-03-04T12:05:04.593Z,2.40
2023-03-04T12:08:37.888Z,2.50
2023-03-04T12:11:21.073Z,4.05
2023-03-04T12:14:09.497Z,3.80
2023-03-04T12:17:02.601Z,4.00
2023-03-04T12:20:08.061Z,1.50
2023-03-04T12:22:55.237Z,3.35
2023-03-04T12:25:40.719Z,3.42
2023-03-04T12:28:13.294Z,2.13
2023-03-04T12:30:55.390Z,4.05
2023-03-04T12:33:41.008Z,1.67
2023-03-04T12:36:28.871Z,3.15
2023-03-04T12:39:19.493Z,2.90
2023-03-04T12:42:20.833Z,5.35
2023-03-04T12:45:07.335Z,2.38
2023-03-04T12:47:56.113Z,2.80
2023-03-04T12:50:29.310Z,2.53
2023-03-04T12:53:17.697Z,2.28
2023-03-04T12:55:46.520Z,1.92
2023-03-04T12:58:23.633Z,3.03
2023-03-04T13:00:56.276Z,2.92
2023-03-04T13:03:53.387Z,3.63
2023-03-04T13:06:23.257Z,2.40
2023-03-04T13:09:17.594Z,2.22
2023-03-04T13:11:49.428Z,8.03
2023-03-04T13:14:18.277Z,17.60
2023-03-04T13:16:57.208Z,4.13
2023-03-04T13:19:49.038Z,2.05
2023-03-04T13:22:40.826Z,6.13
2023-03-04T13:25:44.042Z,5.25
2023-03-04T13:28:15.593Z,4.28
2023-03-04T13:30:55.904Z,4.43
2023-03-04T13:33:22.897Z,3.30
2023-03-04T13:36:04.477Z,6.75
2023-03-04T13:38:31.380Z,5.55
2023-03-04T13:41:19.895Z,3.50
2023-03-04T13:43:47.844Z,2.65
2023-03-04T13:46:20.586Z,7.07
2023-03-04T13:49:16.301Z,1.60
2023-03-04T13:51:45.289Z,3.40
2023-03-04T13:54:24.209Z,8.40
2023-03-04T13:57:19.508Z,1.92
2023-03-04T13:59:57.140Z,4.95
2023-03-04T14:02:26.196Z,7.38
2023-03-04T14:05:02.196Z,8.00
2023-03-04T14:07:32.046Z,4.78
2023-03-04T14:10:05.268Z,3.17
2023-03-04T14:12:37.629Z,7.40
2023-03-04T14:15:16.170Z,8.40
2023-03-04T14:17:49.521Z,5.43
2023-03-04T14:20:28.602Z,3.42
2023-03-04T14:22:56.598Z,5.03
2023-03-04T14:25:26.293Z,6.93
2023-03-04T14:28:14.443Z,5.43
2023-03-04T14:30:44.396Z,4.78
2023-03-04T14:33:44.021Z,9.13
2023-03-04T14:36:18.823Z,4.38
2023-03-04T14:38:52.502Z,2.22
2023-03-04T14:41:31.372Z,1.92
2023-03-04T14:44:11.624Z,2.03
2023-03-04T14:47:00.695Z,2.58
2023-03-04T14:49:32.924Z,6.15
2023-03-04T14:52:00.467Z,3.80
2023-03-04T14:54:34.559Z,6.72
2023-03-04T14:57:22.252Z,29.05
2023-03-04T14:59:49.188Z,6.38
2023-03-04T15:02:21.300Z,4.10
2023-03-04T15:04:49.502Z,3.38
2023-03-04T15:07:20.092Z,5.50
2023-03-04T15:09:55.382Z,2.55
2023-03-04T15:12:28.863Z,3.30
2023-03-04T15:14:58.801Z,3.55
2023-03-04T15:17:25.790Z,1.90
2023-03-04T15:20:19.902Z,4.18
2023-03-04T15:22:49.592Z,5.10
2023-03-04T15:25:20.398Z,3.00
2023-03-04T15:27:48.932Z,3.05
2023-03-04T15:30:24.880Z,3.63
2023-03-04T15:32:51.881Z,8.35
2023-03-04T15:35:20.053Z,2.05
2023-03-04T15:37:49.602Z,4.50
2023-03-04T15:40:46.560Z,1.67
2023-03-04T15:43:22.252Z,3.75
2023-03-04T15:45:50.960Z,3.72
2023-03-04T15:48:19.066Z,2.13
2023-03-04T15:50:51.380Z,5.15
2023-03-04T15:53:28.005Z,4.55
2023-03-04T15:55:55.171Z,2.08
2023-03-04T15:58:22.270Z,2.63
2023-03-04T16:00:49.286Z,2.83
2023-03-04T16:03:18.277Z,3.13
2023-03-04T16:05:47.643Z,3.30
2023-03-04T16:08:18.378Z,4.40
2023-03-04T16:10:45.984Z,5.13
2023-03-04T16:13:19.955Z,4.20
2023-03-04T16:15:47.459Z,3.20
2023-03-04T16:18:16.005Z,3.33
2023-03-04T16:20:46.065Z,5.15
2023-03-04T16:23:24.695Z,3.42
2023-03-04T16:25:55.863Z,3.97
2023-03-04T16:28:23.177Z,3.65
2023-03-04T16:30:50.410Z,4.53
2023-03-04T16:33:17.358Z,4.05
2023-03-04T16:35:45.608Z,4.22
2023-03-04T16:38:26.199Z,3.35
2023-03-04T16:40:53.468Z,5.03
2023-03-04T16:43:22.099Z,5.78
2023-03-04T16:45:49.472Z,3.78
2023-03-04T16:48:16.959Z,6.72
2023-03-04T16:50:44.684Z,4.90
2023-03-04T16:53:34.471Z,7.38
2023-03-04T16:56:06.009Z,3.88
2023-03-04T16:58:33.211Z,3.53
2023-03-04T17:01:01.379Z,4.32
2023-03-04T17:03:28.521Z,4.55
2023-03-04T17:05:55.540Z,3.67
2023-03-04T17:08:22.461Z,4.60
2023-03-04T17:10:50.480Z,5.15
2023-03-04T17:13:17.414Z,5.05
2023-03-04T17:15:45.694Z,3.47
2023-03-04T17:18:12.788Z,5.07
2023-03-04T17:20:40.617Z,3.00
2023-03-04T17:23:07.530Z,4.72
2023-03-04T17:25:34.518Z,3.90
2023-03-04T17:28:01.450Z,3.88
2023-03-04T17:30:28.825Z,6.43
2023-03-04T17:32:55.812Z,4.55
2023-03-04T17:35:22.815Z,3.85
2023-03-04T17:37:49.744Z,7.15
2023-03-04T17:40:16.888Z,6.72
2023-03-04T17:42:44.221Z,7.53
2023-03-04T17:45:11.773Z,10.20
2023-03-04T17:47:39.346Z,10.07
2023-03-04T17:50:07.633Z,7.60
2023-03-04T17:52:34.589Z,7.75
2023-03-04T17:55:01.517Z,7.43
2023-03-04T17:57:28.563Z,7.47
2023-03-04T17:59:56.270Z,7.97
2023-03-04T18:02:23.377Z,7.30
2023-03-04T18:04:50.874Z,7.13
2023-03-04T18:07:17.907Z,6.85
2023-03-04T18:09:47.081Z,9.88
2023-03-04T18:12:14.574Z,7.15
2023-03-04T18:14:41.557Z,6.68
2023-03-04T18:17:08.466Z,6.38
2023-03-04T18:19:35.404Z,7.07
2023-03-04T18:22:02.315Z,8.40
2023-03-04T18:24:29.278Z,11.30
2023-03-04T18:26:57.033Z,7.38
2023-03-04T18:29:24.112Z,7.82
2023-03-04T18:31:51.113Z,6.07
2023-03-04T18:34:18.122Z,5.80
2023-03-04T18:36:45.325Z,8.18
2023-03-04T18:39:12.215Z,8.05
2023-03-04T18:41:39.324Z,8.23
2023-03-04T18:44:09.799Z,7.93
2023-03-04T18:46:45.420Z,9.00
2023-03-04T18:49:14.805Z,11.13
2023-03-04T18:51:41.856Z,9.90
2023-03-04T18:54:08.800Z,10.85
2023-03-04T18:56:46.714Z,19.92
2023-03-04T18:59:31.608Z,17.13
2023-03-04T19:04:28.736Z,7.80
2023-03-04T19:06:57.889Z,6.75
2023-03-04T19:09:25.004Z,10.20
2023-03-04T19:11:52.038Z,10.10
2023-03-04T19:14:19.047Z,9.55
2023-03-04T19:16:46.061Z,10.40
2023-03-04T19:19:13.385Z,10.32
2023-03-04T19:21:40.512Z,9.48
2023-03-04T19:24:07.877Z,11.10
2023-03-04T19:26:35.159Z,10.05
2023-03-04T19:29:02.102Z,8.93
2023-03-04T19:31:29.320Z,6.47
2023-03-04T19:33:56.292Z,6.05
2023-03-04T19:36:23.319Z,8.52
2023-03-04T19:38:50.286Z,5.82
2023-03-04T19:41:18.101Z,8.95
2023-03-04T19:43:46.142Z,7.22
2023-03-04T19:46:14.090Z,8.63
2023-03-04T19:48:41.767Z,13.40
2023-03-04T19:51:16.913Z,6.18
2023-03-04T19:53:43.854Z,8.32
2023-03-04T19:56:11.432Z,9.63
2023-03-04T19:58:38.397Z,7.53
2023-03-04T20:01:05.669Z,7.75
2023-03-04T20:03:33.079Z,4.82
2023-03-04T20:06:05.861Z,6.72
2023-03-04T20:08:33.081Z,9.93
2023-03-04T20:11:00.367Z,11.27
2023-03-04T20:13:27.467Z,12.18
2023-03-04T20:15:54.445Z,9.55
2023-03-04T20:18:23.032Z,16.35
2023-03-04T20:20:51.988Z,19.50
2023-03-04T20:23:20.450Z,15.10
2023-03-04T20:25:49.168Z,11.70
2023-03-04T20:28:16.181Z,8.48
2023-03-04T20:30:43.166Z,9.90
2023-03-04T20:33:10.089Z,9.02
2023-03-04T20:35:38.648Z,7.80
2023-03-04T20:38:05.571Z,10.82
2023-03-04T20:40:32.645Z,16.38
2023-03-04T20:42:59.645Z,15.25
2023-03-04T20:45:26.510Z,9.02
2023-03-04T20:47:53.434Z,10.90
2023-03-04T20:50:20.514Z,16.38
2023-03-04T20:52:48.408Z,10.80
2023-03-04T20:55:15.382Z,12.00
2023-03-04T20:57:42.316Z,14.38
2023-03-04T21:00:10.039Z,8.60
2023-03-04T21:02:37.044Z,8.68
2023-03-04T21:05:04.347Z,11.82
2023-03-04T21:07:31.246Z,10.95
2023-03-04T21:09:58.311Z,8.90
2023-03-04T21:12:26.165Z,10.13
2023-03-04T21:14:53.166Z,10.82
2023-03-04T21:17:20.059Z,7.25
2023-03-04T21:19:47.134Z,10.05
2023-03-04T21:22:17.013Z,7.05
2023-03-04T21:24:44.887Z,8.23
2023-03-04T21:27:13.710Z,7.32
2023-03-04T21:29:40.663Z,10.07
2023-03-04T21:32:25.260Z,5.00
2023-03-04T21:37:25.590Z,7.55
2023-03-04T21:39:53.218Z,5.25
2023-03-04T21:42:20.351Z,5.65
2023-03-04T21:44:50.525Z,9.73
2023-03-04T21:47:18.825Z,4.18
2023-03-04T21:49:46.720Z,7.65
2023-03-04T21:52:13.850Z,8.90
2023-03-04T21:54:40.816Z,7.05
2023-03-04T21:57:07.793Z,7.78
2023-03-04T21:59:34.789Z,6.15
2023-03-04T22:02:02.708Z,6.50
2023-03-04T22:04:29.690Z,5.22
2023-03-04T22:06:56.763Z,7.60
2023-03-04T22:09:23.705Z,4.10
2023-03-04T22:11:50.676Z,5.80
2023-03-04T22:14:17.735Z,7.13
2023-03-04T22:16:54.521Z,5.68
2023-03-04T22:19:23.829Z,6.22
2023-03-04T22:21:52.037Z,6.30
2023-03-04T22:24:19.663Z,5.88
2023-03-04T22:26:46.751Z,5.45
2023-03-04T22:29:13.842Z,7.93
2023-03-04T22:31:41.029Z,7.25
2023-03-04T22:34:13.691Z,6.65
2023-03-04T22:36:42.745Z,7.22
2023-03-04T22:39:12.343Z,7.70
2023-03-04T22:41:39.329Z,6.28
2023-03-04T22:44:06.457Z,7.85
2023-03-04T22:46:36.466Z,6.15
2023-03-04T22:49:06.521Z,6.90
2023-03-04T22:51:33.510Z,14.55
2023-03-04T22:54:00.393Z,7.13
2023-03-04T22:56:27.347Z,5.30
2023-03-04T22:58:54.265Z,5.18
2023-03-04T23:01:21.327Z,4.65
2023-03-04T23:03:49.423Z,4.65
2023-03-04T23:06:19.826Z,4.53
2023-03-04T23:08:48.718Z,5.40
2023-03-04T23:11:26.456Z,7.82
2023-03-04T23:13:54.610Z,5.05
2023-03-04T23:16:22.358Z,5.95
2023-03-04T23:18:50.361Z,6.88
2023-03-04T23:21:25.633Z,6.10
2023-03-04T23:23:52.863Z,4.97
2023-03-04T23:26:28.637Z,4.38
2023-03-04T23:28:57.242Z,5.45
2023-03-04T23:31:24.400Z,8.05
2023-03-04T23:33:51.688Z,5.05
2023-03-04T23:36:19.502Z,5.15
2023-03-04T23:38:48.532Z,6.25
2023-03-04T23:41:19.959Z,4.43
2023-03-04T23:43:47.873Z,6.60
2023-03-04T23:46:15.680Z,6.65
2023-03-04T23:48:46.454Z,6.18
2023-03-04T23:51:15.579Z,6.90
2023-03-04T23:53:42.757Z,4.78
2023-03-04T23:56:16.060Z,7.78
2023-03-04T23:58:43.680Z,4.78
